createdAt,value
2022-11-08T00:00:44.359Z,97772.56
2022-11-08T00:03:11.456Z,97768.63
2022-11-08T00:05:58.517Z,97767.13
2022-11-08T00:08:45.526Z,97769.81
2022-11-08T00:11:32.261Z,97759.97
2022-11-08T00:14:04.106Z,97770.22
2022-11-08T00:16:30.869Z,97773.00
2022-11-08T00:18:57.986Z,97765.34
2022-11-08T00:21:24.982Z,97757.56
2022-11-08T00:23:53.167Z,97750.00
2022-11-08T00:26:22.028Z,97754.66
2022-11-08T00:28:50.373Z,97751.34
2022-11-08T00:31:18.485Z,97749.88
2022-11-08T00:33:45.468Z,97756.88
2022-11-08T00:36:12.253Z,97755.44
2022-11-08T00:38:43.591Z,97760.03
2022-11-08T00:41:11.877Z,97753.31
2022-11-08T00:43:38.734Z,97758.78
2022-11-08T00:46:07.789Z,97758.06
2022-11-08T00:48:35.469Z,97757.31
2022-11-08T00:51:08.440Z,97760.91
2022-11-08T00:53:39.101Z,97758.63
2022-11-08T00:56:10.500Z,97755.50
2022-11-08T00:58:37.386Z,97755.75
2022-11-08T01:01:14.163Z,97762.97
2022-11-08T01:03:41.020Z,97756.25
2022-11-08T01:06:13.927Z,97759.09
2022-11-08T01:08:42.047Z,97753.09
2022-11-08T01:11:23.796Z,97741.22
2022-11-08T01:13:54.486Z,97748.13
2022-11-08T01:16:26.443Z,97751.66
2022-11-08T01:18:56.594Z,97739.66
2022-11-08T01:21:25.055Z,97739.84
2022-11-08T01:23:54.145Z,97752.81
2022-11-08T01:26:25.760Z,97748.53
2022-11-08T01:28:55.386Z,97736.59
2022-11-08T01:31:31.987Z,97738.44
2022-11-08T01:34:00.054Z,97742.78
2022-11-08T01:36:28.560Z,97741.13
2022-11-08T01:38:56.864Z,97749.06
2022-11-08T01:41:26.518Z,97739.84
2022-11-08T01:43:56.142Z,97745.09
2022-11-08T01:46:37.607Z,97743.63
2022-11-08T01:49:44.445Z,97743.81
2022-11-08T01:52:51.980Z,97743.81
2022-11-08T01:55:36.718Z,97741.34
2022-11-08T01:58:11.650Z,97743.91
2022-11-08T02:00:40.065Z,97735.50
2022-11-08T02:03:12.487Z,97735.59
2022-11-08T02:05:40.461Z,97729.69
2022-11-08T02:08:22.377Z,97728.13
2022-11-08T02:10:52.726Z,97728.97
2022-11-08T02:13:29.008Z,97729.25
2022-11-08T02:15:56.212Z,97725.06
2022-11-08T02:18:27.268Z,97721.75
2022-11-08T02:21:12.930Z,97717.63
2022-11-08T02:23:55.407Z,97703.34
2022-11-08T02:26:32.943Z,97705.25
2022-11-08T02:29:24.496Z,97690.97
2022-11-08T02:31:51.532Z,97692.81
2022-11-08T02:34:20.616Z,97688.78
2022-11-08T02:36:49.361Z,97681.09
2022-11-08T02:39:16.089Z,97687.28
2022-11-08T02:41:42.802Z,97676.41
2022-11-08T02:44:09.491Z,97683.41
2022-11-08T02:46:36.182Z,97672.34
2022-11-08T02:49:06.171Z,97679.31
2022-11-08T02:51:33.815Z,97673.53
2022-11-08T02:54:00.731Z,97677.03
2022-11-08T02:56:27.460Z,97669.44
2022-11-08T02:58:54.253Z,97671.19
2022-11-08T03:01:22.811Z,97670.53
2022-11-08T03:03:50.284Z,97659.47
2022-11-08T03:06:17.301Z,97662.06
2022-11-08T03:08:45.285Z,97665.66
2022-11-08T03:11:12.224Z,97664.91
2022-11-08T03:13:38.919Z,97665.84
2022-11-08T03:16:07.065Z,97678.09
2022-11-08T03:18:34.271Z,97687.56
2022-11-08T03:21:01.584Z,97682.56
2022-11-08T03:23:30.551Z,97675.75
2022-11-08T03:25:57.318Z,97670.69
2022-11-08T03:28:24.552Z,97680.91
2022-11-08T03:30:53.102Z,97677.59
2022-11-08T03:33:21.582Z,97677.59
2022-11-08T03:35:49.935Z,97680.19
2022-11-08T03:38:17.774Z,97680.19
2022-11-08T03:40:46.425Z,97673.28
2022-11-08T03:43:13.397Z,97681.09
2022-11-08T03:45:41.412Z,97670.13
2022-11-08T03:48:08.565Z,97673.66
2022-11-08T03:50:35.757Z,97665.06
2022-11-08T03:53:02.564Z,97671.16
2022-11-08T03:55:29.602Z,97677.28
2022-11-08T03:57:56.790Z,97670.56
2022-11-08T04:00:28.494Z,97672.41
2022-11-08T04:03:05.948Z,97670.84
2022-11-08T04:05:32.922Z,97679.41
2022-11-08T04:08:01.685Z,97672.59
2022-11-08T04:10:28.565Z,97675.34
2022-11-08T04:13:17.152Z,97670.34
2022-11-08T04:15:44.326Z,97671.28
2022-11-08T04:18:29.438Z,97664.56
2022-11-08T04:21:18.919Z,97664.66
2022-11-08T04:23:48.204Z,97663.31
2022-11-08T04:26:15.668Z,97660.94
2022-11-08T04:28:43.150Z,97666.09
2022-11-08T04:31:19.488Z,97667.00
2022-11-08T04:33:46.546Z,97664.50
2022-11-08T04:36:16.320Z,97662.84
2022-11-08T04:38:43.701Z,97652.88
2022-11-08T04:41:15.730Z,97654.72
2022-11-08T04:43:43.014Z,97647.91
2022-11-08T04:46:16.767Z,97652.31
2022-11-08T04:48:44.706Z,97653.16
2022-11-08T04:51:19.476Z,97658.38
2022-11-08T04:53:46.406Z,97649.91
2022-11-08T04:56:16.577Z,97655.16
2022-11-08T04:58:49.175Z,97652.69
2022-11-08T05:01:19.267Z,97645.84
2022-11-08T05:03:49.894Z,97631.38
2022-11-08T05:06:29.043Z,97643.34
2022-11-08T05:08:57.681Z,97644.25
2022-11-08T05:11:27.605Z,97637.47
2022-11-08T05:13:55.318Z,97635.06
2022-11-08T05:16:32.031Z,97642.03
2022-11-08T05:18:59.407Z,97634.41
2022-11-08T05:21:46.295Z,97630.22
2022-11-08T05:24:17.302Z,97618.44
2022-11-08T05:26:47.211Z,97632.34
2022-11-08T05:29:15.864Z,97617.88
2022-11-08T05:31:42.694Z,97629.13
2022-11-08T05:34:09.429Z,97617.16
2022-11-08T05:36:36.141Z,97618.97
2022-11-08T05:39:03.173Z,97626.69
2022-11-08T05:41:30.102Z,97625.22
2022-11-08T05:43:56.839Z,97628.59
2022-11-08T05:46:24.541Z,97620.97
2022-11-08T05:48:51.976Z,97619.22
2022-11-08T05:51:19.774Z,97629.63
2022-11-08T05:53:48.393Z,97628.78
2022-11-08T05:56:15.181Z,97618.75
2022-11-08T05:58:41.877Z,97619.72
2022-11-08T06:01:14.701Z,97622.38
2022-11-08T06:03:42.162Z,97617.31
2022-11-08T06:06:18.131Z,97621.47
2022-11-08T06:08:49.879Z,97616.50
2022-11-08T06:11:21.633Z,97621.66
2022-11-08T06:13:48.960Z,97611.34
2022-11-08T06:16:18.359Z,97615.59
2022-11-08T06:18:45.422Z,97618.16
2022-11-08T06:21:18.649Z,97618.91
2022-11-08T06:23:46.248Z,97606.09
2022-11-08T06:26:13.557Z,97621.56
2022-11-08T06:28:40.244Z,97614.75
2022-11-08T06:31:06.953Z,97621.47
2022-11-08T06:33:34.190Z,97631.63
2022-11-08T06:36:01.628Z,97628.03
2022-11-08T06:38:28.485Z,97631.38
2022-11-08T06:40:59.514Z,97632.00
2022-11-08T06:43:26.518Z,97630.94
2022-11-08T06:45:53.723Z,97620.47
2022-11-08T06:48:20.687Z,97633.91
2022-11-08T06:50:48.122Z,97642.28
2022-11-08T06:53:15.065Z,97641.13
2022-11-08T06:55:42.340Z,97633.03
2022-11-08T06:58:10.809Z,97633.44
2022-11-08T07:00:37.547Z,97639.06
2022-11-08T07:03:04.608Z,97630.63
2022-11-08T07:05:34.165Z,97630.25
2022-11-08T07:08:01.739Z,97629.34
2022-11-08T07:10:31.715Z,97630.00
2022-11-08T07:13:05.249Z,97635.28
2022-11-08T07:15:34.633Z,97634.66
2022-11-08T07:18:10.964Z,97631.38
2022-11-08T07:20:39.213Z,97619.09
2022-11-08T07:23:06.904Z,97615.19
2022-11-08T07:25:34.665Z,97616.16
2022-11-08T07:28:05.407Z,97618.19
2022-11-08T07:30:35.076Z,97608.75
2022-11-08T07:33:02.351Z,97621.50
2022-11-08T07:35:29.219Z,97623.13
2022-11-08T07:37:56.952Z,97622.47
2022-11-08T07:40:24.010Z,97622.38
2022-11-08T07:43:11.421Z,97615.41
2022-11-08T07:45:37.826Z,97605.38
2022-11-08T07:48:11.585Z,97616.66
2022-11-08T07:50:40.630Z,97616.44
2022-11-08T07:53:07.976Z,97614.63
2022-11-08T07:55:41.094Z,97608.06
2022-11-08T07:58:10.697Z,97619.94
2022-11-08T08:00:40.376Z,97613.72
2022-11-08T08:03:09.716Z,97613.16
2022-11-08T08:05:41.412Z,97614.78
2022-11-08T08:08:10.454Z,97623.06
2022-11-08T08:10:38.180Z,97623.06
2022-11-08T08:13:06.342Z,97618.34
2022-11-08T08:15:33.483Z,97618.75
2022-11-08T08:18:03.266Z,97612.59
2022-11-08T08:20:31.184Z,97615.56
2022-11-08T08:22:59.250Z,97615.94
2022-11-08T08:25:28.082Z,97611.56
2022-11-08T08:27:57.650Z,97614.03
2022-11-08T08:30:25.127Z,97598.19
2022-11-08T08:33:14.595Z,97609.09
2022-11-08T08:35:43.020Z,97617.41
2022-11-08T08:38:12.845Z,97616.88
2022-11-08T08:40:39.871Z,97624.88
2022-11-08T08:43:09.722Z,97613.78
2022-11-08T08:45:36.810Z,97617.94
2022-11-08T08:48:04.571Z,97617.81
2022-11-08T08:50:34.638Z,97598.59
2022-11-08T08:53:05.696Z,97608.34
2022-11-08T08:55:35.287Z,97599.75
2022-11-08T08:58:02.458Z,97613.66
2022-11-08T09:03:16.475Z,97604.72
2022-11-08T09:05:44.051Z,97606.47
2022-11-08T09:08:12.668Z,97599.44
2022-11-08T09:10:39.391Z,97603.94
2022-11-08T09:13:06.161Z,97602.22
2022-11-08T09:15:33.379Z,97597.66
2022-11-08T09:18:00.393Z,97611.75
2022-11-08T09:20:27.185Z,97597.78
2022-11-08T09:22:53.904Z,97593.00
2022-11-08T09:25:20.640Z,97592.06
2022-11-08T09:27:47.488Z,97592.06
2022-11-08T09:30:14.294Z,97581.31
2022-11-08T09:33:00.382Z,97590.34
2022-11-08T09:35:28.955Z,97593.03
2022-11-08T09:37:56.215Z,97600.13
2022-11-08T09:41:06.826Z,97587.75
2022-11-08T09:44:20.074Z,97592.63
2022-11-08T09:47:04.444Z,97603.00
2022-11-08T09:49:45.319Z,97606.88
2022-11-08T09:52:26.729Z,97605.34
2022-11-08T09:55:10.548Z,97604.56
2022-11-08T09:58:18.484Z,97586.69
2022-11-08T10:00:45.815Z,97590.22
2022-11-08T10:03:18.282Z,97582.47
2022-11-08T10:06:25.521Z,97580.81
2022-11-08T10:09:06.046Z,97585.97
2022-11-08T10:12:10.382Z,97584.28
2022-11-08T10:15:04.592Z,97585.41
2022-11-08T10:17:49.276Z,97588.88
2022-11-08T10:20:50.869Z,97593.66
2022-11-08T10:23:59.395Z,97587.81
2022-11-08T10:26:36.382Z,97574.34
2022-11-08T10:29:19.709Z,97577.53
2022-11-08T10:31:52.173Z,97567.53
2022-11-08T10:34:26.781Z,97562.09
2022-11-08T10:37:08.670Z,97560.59
2022-11-08T10:39:43.993Z,97563.50
2022-11-08T10:42:37.314Z,97562.38
2022-11-08T10:45:04.512Z,97557.44
2022-11-08T10:47:34.087Z,97551.34
2022-11-08T10:50:04.110Z,97551.53
2022-11-08T10:52:45.427Z,97567.75
2022-11-08T10:55:38.337Z,97567.22
2022-11-08T10:58:39.719Z,97554.00
2022-11-08T11:01:23.864Z,97548.38
2022-11-08T11:03:53.168Z,97547.94
2022-11-08T11:06:33.229Z,97538.81
2022-11-08T11:09:04.372Z,97532.44
2022-11-08T11:11:31.095Z,97522.66
2022-11-08T11:14:14.476Z,97514.78
2022-11-08T11:17:02.416Z,97513.44
2022-11-08T11:22:07.819Z,97528.22
2022-11-08T11:24:37.559Z,97523.31
2022-11-08T11:27:07.729Z,97528.41
2022-11-08T11:29:38.161Z,97524.78
2022-11-08T11:32:33.006Z,97523.94
2022-11-08T11:35:03.972Z,97528.19
2022-11-08T11:37:35.296Z,97521.91
2022-11-08T11:40:33.243Z,97521.53
2022-11-08T11:43:09.615Z,97513.13
2022-11-08T11:46:17.852Z,97540.00
2022-11-08T11:48:58.369Z,97508.56
2022-11-08T11:51:29.337Z,97512.72
2022-11-08T11:53:58.200Z,97520.91
2022-11-08T11:56:52.726Z,97512.38
2022-11-08T11:59:42.613Z,97499.41
2022-11-08T12:02:39.843Z,97502.03
2022-11-08T12:05:28.707Z,97506.22
2022-11-08T12:08:24.574Z,97498.69
2022-11-08T12:11:41.999Z,97491.56
2022-11-08T12:14:48.500Z,97480.91
2022-11-08T12:17:37.703Z,97483.25
2022-11-08T12:20:49.747Z,97476.06
2022-11-08T12:23:40.501Z,97470.31
2022-11-08T12:26:26.454Z,97476.25
2022-11-08T12:29:18.790Z,97478.75
2022-11-08T12:32:02.813Z,97464.56
2022-11-08T12:35:00.110Z,97470.03
2022-11-08T12:37:53.916Z,97462.50
2022-11-08T12:40:58.545Z,97462.81
2022-11-08T12:43:40.145Z,97455.84
2022-11-08T12:46:18.233Z,97455.72
2022-11-08T12:49:05.923Z,97456.91
2022-11-08T12:52:28.451Z,97454.63
2022-11-08T12:55:02.649Z,97458.22
2022-11-08T12:57:31.356Z,97453.78
2022-11-08T13:00:17.214Z,97453.00
2022-11-08T13:03:04.885Z,97451.97
2022-11-08T13:05:43.627Z,97449.84
2022-11-08T13:08:23.764Z,97441.59
2022-11-08T13:11:07.381Z,97435.19
2022-11-08T13:13:54.823Z,97439.78
2022-11-08T13:16:38.979Z,97439.84
2022-11-08T13:19:06.086Z,97432.09
2022-11-08T13:21:43.968Z,97442.13
2022-11-08T13:24:42.301Z,97448.38
2022-11-08T13:27:30.173Z,97435.38
2022-11-08T13:30:23.028Z,97435.84
2022-11-08T13:33:34.627Z,97450.56
2022-11-08T13:36:27.376Z,97440.44
2022-11-08T13:39:48.320Z,97432.00
2022-11-08T13:42:18.025Z,97426.94
2022-11-08T13:45:00.152Z,97425.63
2022-11-08T13:47:32.761Z,97429.66
2022-11-08T13:50:37.607Z,97417.31
2022-11-08T13:53:20.404Z,97422.06
2022-11-08T13:56:03.989Z,97423.25
2022-11-08T13:58:43.992Z,97421.72
2022-11-08T14:01:23.110Z,97417.50
2022-11-08T14:03:55.913Z,97420.47
2022-11-08T14:07:01.352Z,97417.00
2022-11-08T14:09:44.179Z,97421.31
2022-11-08T14:12:36.861Z,97416.13
2022-11-08T14:15:27.644Z,97407.63
2022-11-08T14:18:03.899Z,97406.00
2022-11-08T14:20:39.512Z,97410.19
2022-11-08T14:23:18.956Z,97409.59
2022-11-08T14:25:54.523Z,97419.47
2022-11-08T14:28:33.813Z,97411.69
2022-11-08T14:31:06.684Z,97417.00
2022-11-08T14:33:42.472Z,97412.44
2022-11-08T14:36:16.536Z,97417.72
2022-11-08T14:39:15.767Z,97418.91
2022-11-08T14:41:51.882Z,97428.63
2022-11-08T14:44:19.474Z,97431.16
2022-11-08T14:46:48.360Z,97435.91
2022-11-08T14:49:15.641Z,97430.75
2022-11-08T14:51:43.423Z,97425.59
2022-11-08T14:54:21.764Z,97424.03
2022-11-08T14:56:50.207Z,97426.84
2022-11-08T14:59:18.179Z,97428.59
2022-11-08T15:01:49.168Z,97422.59
2022-11-08T15:04:20.359Z,97426.75
2022-11-08T15:06:57.355Z,97432.06
2022-11-08T15:09:34.953Z,97422.63
2022-11-08T15:12:18.447Z,97421.72
2022-11-08T15:14:57.458Z,97411.03
2022-11-08T15:17:35.765Z,97413.50
2022-11-08T15:20:25.785Z,97415.06
2022-11-08T15:22:56.423Z,97409.72
2022-11-08T15:25:34.640Z,97406.75
2022-11-08T15:28:16.620Z,97410.06
2022-11-08T15:30:46.200Z,97402.94
2022-11-08T15:33:29.483Z,97406.13
2022-11-08T15:35:58.281Z,97406.81
2022-11-08T15:38:39.234Z,97407.56
2022-11-08T15:41:30.179Z,97409.06
2022-11-08T15:44:26.588Z,97411.44
2022-11-08T15:46:55.484Z,97413.78
2022-11-08T15:49:24.765Z,97417.78
2022-11-08T15:51:55.029Z,97420.13
2022-11-08T15:54:26.749Z,97415.47
2022-11-08T15:56:56.369Z,97417.41
2022-11-08T15:59:29.531Z,97412.44
2022-11-08T16:01:59.861Z,97409.00
2022-11-08T16:04:28.804Z,97401.47
2022-11-08T16:06:57.033Z,97406.84
2022-11-08T16:09:23.795Z,97407.25
2022-11-08T16:11:50.867Z,97411.09
2022-11-08T16:14:22.619Z,97401.75
2022-11-08T16:16:49.673Z,97402.19
2022-11-08T16:19:23.476Z,97412.72
2022-11-08T16:21:51.803Z,97410.38
2022-11-08T16:24:24.678Z,97407.22
2022-11-08T16:26:51.474Z,97414.38
2022-11-08T16:29:22.545Z,97417.66
2022-11-08T16:31:50.655Z,97428.66
2022-11-08T16:34:18.462Z,97428.25
2022-11-08T16:36:47.476Z,97424.25
2022-11-08T16:39:18.243Z,97426.44
2022-11-08T16:41:45.508Z,97429.59
2022-11-08T16:44:12.841Z,97425.59
2022-11-08T16:46:40.259Z,97427.00
2022-11-08T16:49:18.484Z,97417.63
2022-11-08T16:51:45.197Z,97410.09
2022-11-08T16:54:28.231Z,97408.56
2022-11-08T16:57:13.975Z,97407.91
2022-11-08T16:59:43.700Z,97403.09
2022-11-08T17:02:30.600Z,97398.41
2022-11-08T17:04:57.569Z,97407.47
2022-11-08T17:07:26.783Z,97407.59
2022-11-08T17:09:54.167Z,97416.47
2022-11-08T17:12:22.301Z,97416.75
2022-11-08T17:14:49.619Z,97424.56
2022-11-08T17:17:16.494Z,97417.03
2022-11-08T17:19:43.211Z,97425.81
2022-11-08T17:22:09.929Z,97425.81
2022-11-08T17:24:36.646Z,97426.63
2022-11-08T17:27:03.454Z,97436.22
2022-11-08T17:29:30.154Z,97436.22
2022-11-08T17:31:56.862Z,97438.84
2022-11-08T17:34:23.584Z,97428.41
2022-11-08T17:36:52.748Z,97435.41
2022-11-08T17:39:19.498Z,97428.53
2022-11-08T17:41:46.300Z,97428.53
2022-11-08T17:44:14.193Z,97440.75
2022-11-08T17:46:40.970Z,97442.66
2022-11-08T17:49:09.471Z,97437.56
2022-11-08T17:51:36.576Z,97427.41
2022-11-08T17:54:03.679Z,97438.94
2022-11-08T17:56:31.319Z,97447.56
2022-11-08T17:58:58.563Z,97439.88
2022-11-08T18:01:25.592Z,97440.97
2022-11-08T18:03:52.514Z,97451.91
2022-11-08T18:06:19.299Z,97443.53
2022-11-08T18:08:46.066Z,97450.22
2022-11-08T18:11:13.128Z,97457.59
2022-11-08T18:13:39.911Z,97454.72
2022-11-08T18:16:09.301Z,97455.75
2022-11-08T18:18:36.686Z,97460.97
2022-11-08T18:21:05.287Z,97454.94
2022-11-08T18:23:32.746Z,97458.63
2022-11-08T18:25:59.874Z,97452.72
2022-11-08T18:28:27.002Z,97458.19
2022-11-08T18:30:55.259Z,97461.16
2022-11-08T18:33:24.600Z,97455.66
2022-11-08T18:35:51.676Z,97455.19
2022-11-08T18:38:18.665Z,97456.28
2022-11-08T18:40:49.770Z,97448.88
2022-11-08T18:43:16.943Z,97429.50
2022-11-08T18:45:44.497Z,97433.56
2022-11-08T18:48:11.250Z,97432.41
2022-11-08T18:50:38.646Z,97434.31
2022-11-08T18:53:07.079Z,97436.22
2022-11-08T18:55:34.769Z,97428.09
2022-11-08T18:58:02.227Z,97431.09
2022-11-08T19:00:29.000Z,97435.59
2022-11-08T19:02:55.706Z,97433.50
2022-11-08T19:05:23.490Z,97426.19
2022-11-08T19:07:50.221Z,97416.31
2022-11-08T19:10:17.132Z,97428.28
2022-11-08T19:12:44.191Z,97429.56
2022-11-08T19:15:12.174Z,97432.69
2022-11-08T19:17:39.002Z,97420.28
2022-11-08T19:20:07.401Z,97424.94
2022-11-08T19:22:34.773Z,97426.13
2022-11-08T19:25:02.042Z,97433.34
2022-11-08T19:27:29.149Z,97430.75
2022-11-08T19:29:55.914Z,97429.94
2022-11-08T19:32:23.289Z,97434.19
2022-11-08T19:34:50.204Z,97431.69
2022-11-08T19:37:17.015Z,97429.94
2022-11-08T19:39:43.704Z,97422.84
2022-11-08T19:42:10.612Z,97432.16
2022-11-08T19:44:37.513Z,97427.78
2022-11-08T19:47:05.135Z,97428.72
2022-11-08T19:49:31.868Z,97437.34
2022-11-08T19:51:59.477Z,97439.81
2022-11-08T19:54:26.372Z,97433.53
2022-11-08T19:57:08.741Z,97428.34
2022-11-08T19:59:35.819Z,97425.88
2022-11-08T20:02:02.982Z,97430.13
2022-11-08T20:04:30.290Z,97428.47
2022-11-08T20:06:57.064Z,97436.41
2022-11-08T20:09:29.100Z,97428.72
2022-11-08T20:11:57.575Z,97428.03
2022-11-08T20:14:24.366Z,97421.06
2022-11-08T20:16:53.715Z,97418.59
2022-11-08T20:19:20.671Z,97429.69
2022-11-08T20:21:47.834Z,97420.94
2022-11-08T20:24:15.892Z,97419.97
2022-11-08T20:26:43.692Z,97426.00
2022-11-08T20:29:11.148Z,97424.22
2022-11-08T20:31:39.045Z,97431.19
2022-11-08T20:34:09.856Z,97432.97
2022-11-08T20:36:37.693Z,97429.69
2022-11-08T20:39:07.780Z,97428.97
2022-11-08T20:41:37.103Z,97423.06
2022-11-08T20:44:05.608Z,97433.56
2022-11-08T20:46:33.011Z,97431.81
2022-11-08T20:49:01.105Z,97426.47
2022-11-08T20:51:30.267Z,97427.44
2022-11-08T20:53:59.138Z,97416.94
2022-11-08T20:56:27.598Z,97419.41
2022-11-08T20:58:54.645Z,97422.84
2022-11-08T21:01:25.591Z,97423.66
2022-11-08T21:03:52.776Z,97428.72
2022-11-08T21:06:22.867Z,97428.03
2022-11-08T21:08:59.040Z,97428.97
2022-11-08T21:11:30.374Z,97424.75
2022-11-08T21:13:57.675Z,97422.97
2022-11-08T21:16:30.344Z,97426.59
2022-11-08T21:19:00.153Z,97428.72
2022-11-08T21:21:27.483Z,97428.72
2022-11-08T21:23:54.555Z,97437.47
2022-11-08T21:26:22.816Z,97434.41
2022-11-08T21:28:49.761Z,97433.13
2022-11-08T21:31:17.097Z,97428.31
2022-11-08T21:33:44.268Z,97441.78
2022-11-08T21:36:11.967Z,97437.78
2022-11-08T21:38:40.287Z,97425.25
2022-11-08T21:41:09.420Z,97433.41
2022-11-08T21:43:44.348Z,97426.91
2022-11-08T21:46:18.246Z,97428.91
2022-11-08T21:48:46.462Z,97427.38
2022-11-08T21:51:14.839Z,97425.75
2022-11-08T21:53:52.489Z,97419.84
2022-11-08T21:56:23.031Z,97418.88
2022-11-08T21:58:50.031Z,97429.97
2022-11-08T22:01:17.341Z,97445.19
2022-11-08T22:03:44.242Z,97453.13
2022-11-08T22:06:10.955Z,97444.75
2022-11-08T22:08:37.779Z,97440.13
2022-11-08T22:11:04.999Z,97431.13
2022-11-08T22:13:31.762Z,97429.00
2022-11-08T22:15:58.461Z,97429.47
2022-11-08T22:18:43.367Z,97430.84
2022-11-08T22:21:30.294Z,97427.22
2022-11-08T22:23:56.992Z,97418.59
2022-11-08T22:26:23.696Z,97422.00
2022-11-08T22:28:50.441Z,97428.47
2022-11-08T22:31:17.276Z,97428.00
2022-11-08T22:33:44.036Z,97421.34
2022-11-08T22:36:11.765Z,97426.28
2022-11-08T22:38:38.657Z,97433.72
2022-11-08T22:41:06.210Z,97432.66
2022-11-08T22:43:36.775Z,97427.06
2022-11-08T22:46:03.533Z,97425.28
2022-11-08T22:48:30.361Z,97425.03
2022-11-08T22:50:57.434Z,97421.38
2022-11-08T22:53:24.390Z,97428.38
2022-11-08T22:55:51.448Z,97431.78
2022-11-08T22:58:18.300Z,97430.13
2022-11-08T23:00:45.064Z,97418.09
2022-11-08T23:03:12.038Z,97424.13
2022-11-08T23:05:38.811Z,97428.59
2022-11-08T23:08:05.787Z,97426.94
2022-11-08T23:10:32.532Z,97424.59
2022-11-08T23:13:17.971Z,97419.66
2022-11-08T23:16:03.529Z,97416.47
2022-11-08T23:18:30.221Z,97414.09
2022-11-08T23:21:15.387Z,97417.78
2022-11-08T23:23:42.231Z,97413.66
2022-11-08T23:26:08.920Z,97417.22
2022-11-08T23:28:54.344Z,97417.47
2022-11-08T23:31:35.875Z,97410.84
2022-11-08T23:34:04.135Z,97420.44
2022-11-08T23:36:31.024Z,97409.06
2022-11-08T23:38:58.744Z,97408.13
2022-11-08T23:41:43.984Z,97408.13
2022-11-08T23:44:39.960Z,97402.09
2022-11-08T23:47:06.651Z,97408.13
2022-11-08T23:49:33.373Z,97393.34
2022-11-08T23:52:00.154Z,97411.44
2022-11-08T23:54:26.865Z,97403.66
2022-11-08T23:56:53.824Z,97406.25
2022-11-08T23:59:20.516Z,97406.34
